Time;durP1;ratioP1;P1;durP2;ratioP2;P2;SDS_P1;SDS_P2;PMS_P1;PMS_P2;Temp;Humidity;BMP_temperature;BMP_pressure;BME280_temperature;BME280_humidity;BME280_pressure;Samples;Min_cycle;Max_cycle;Signal;HPM_P1;HPM_P2
2023/03/04 00:01:19;;;;;;;23.00;15.37;;;;;;;40.98;34.50;101038.16;6156055;23;20439;-95
2023/03/04 00:03:45;;;;;;;25.50;15.27;;;;;;;40.72;34.82;101038.19;6155529;23;20400;-93
2023/03/04 00:06:11;;;;;;;26.03;14.47;;;;;;;41.01;34.56;101038.34;6155472;23;20393;-94
2023/03/04 00:08:37;;;;;;;28.03;14.03;;;;;;;40.80;34.79;101030.00;6155974;23;20149;-95
2023/03/04 00:11:03;;;;;;;24.50;18.63;;;;;;;40.92;34.42;101028.56;6156296;23;20175;-95
2023/03/04 00:13:29;;;;;;;25.23;14.67;;;;;;;41.04;34.36;101028.72;6155678;23;20470;-95
2023/03/04 00:15:55;;;;;;;20.20;14.97;;;;;;;40.84;34.08;101026.66;6155972;23;20464;-95
2023/03/04 00:18:21;;;;;;;27.80;15.40;;;;;;;40.51;34.89;101022.50;6155898;23;20389;-95
2023/03/04 00:20:48;;;;;;;31.43;18.07;;;;;;;40.55;34.69;100995.47;6154864;23;20448;-89
2023/03/04 00:23:15;;;;;;;30.37;15.50;;;;;;;40.98;34.06;100991.91;6154919;23;20474;-94
2023/03/04 00:25:41;;;;;;;28.27;17.10;;;;;;;40.96;33.57;100991.44;6155707;23;20870;-94
2023/03/04 00:28:07;;;;;;;21.37;15.57;;;;;;;40.80;34.16;100991.13;6155754;23;20382;-93
2023/03/04 00:30:33;;;;;;;24.03;16.40;;;;;;;40.33;34.52;100991.00;6155106;23;20154;-88
2023/03/04 00:32:59;;;;;;;27.23;15.10;;;;;;;40.36;34.66;100984.09;6153803;23;20392;-89
2023/03/04 00:35:25;;;;;;;28.20;17.50;;;;;;;40.08;34.76;100989.03;6155839;23;20392;-94
2023/03/04 00:37:51;;;;;;;29.33;21.50;;;;;;;40.42;34.15;100983.63;6156177;23;20877;-92
2023/03/04 00:40:17;;;;;;;25.97;18.07;;;;;;;39.99;34.74;100978.16;6155664;23;20435;-93
2023/03/04 00:42:43;;;;;;;22.77;16.17;;;;;;;40.44;33.66;100973.22;6156223;23;20464;-96
2023/03/04 00:45:10;;;;;;;25.20;14.60;;;;;;;39.69;34.76;100972.50;6156840;23;20769;-96
2023/03/04 00:47:36;;;;;;;21.83;14.80;;;;;;;40.00;34.01;100968.88;6155443;23;20389;-95
2023/03/04 00:50:02;;;;;;;24.60;15.67;;;;;;;39.78;34.91;100960.84;6155455;23;20737;-86
2023/03/04 00:52:28;;;;;;;21.50;14.03;;;;;;;40.14;34.18;100938.84;6153921;23;20463;-84
2023/03/04 00:54:54;;;;;;;24.53;11.60;;;;;;;39.67;34.45;100939.44;6154127;23;20869;-86
2023/03/04 00:57:20;;;;;;;19.80;13.50;;;;;;;39.80;34.81;100934.19;6154196;23;20436;-83
2023/03/04 00:59:46;;;;;;;22.33;13.13;;;;;;;39.69;34.39;100934.47;6153957;23;20185;-83
2023/03/04 01:02:12;;;;;;;26.13;13.97;;;;;;;40.07;34.36;100922.25;6155621;23;20405;-87
2023/03/04 01:04:38;;;;;;;19.47;13.60;;;;;;;40.19;34.09;100922.41;6154345;23;20436;-88
2023/03/04 01:07:04;;;;;;;20.73;12.17;;;;;;;40.51;33.41;100924.63;6154428;23;20385;-89
2023/03/04 01:09:30;;;;;;;17.80;11.70;;;;;;;40.16;34.46;100923.84;6152330;23;20386;-87
2023/03/04 01:11:56;;;;;;;22.00;12.83;;;;;;;39.75;34.91;100924.25;6155104;23;20775;-92
2023/03/04 01:14:22;;;;;;;17.27;10.77;;;;;;;39.93;34.52;100930.53;6154719;23;20389;-93
2023/03/04 01:16:49;;;;;;;21.23;12.57;;;;;;;39.62;35.33;100936.06;6154609;23;20378;-93
2023/03/04 01:19:15;;;;;;;20.80;13.70;;;;;;;40.01;34.61;100946.81;6154549;23;20385;-88
2023/03/04 01:21:41;;;;;;;20.83;12.37;;;;;;;39.90;34.86;100934.69;6154043;23;20448;-87
2023/03/04 01:24:08;;;;;;;27.43;15.67;;;;;;;40.14;34.83;100936.94;6153765;23;20381;-83
2023/03/04 01:26:34;;;;;;;17.87;11.10;;;;;;;40.07;35.15;100935.81;6153480;23;21002;-84
2023/03/04 01:29:00;;;;;;;23.30;11.37;;;;;;;39.94;34.87;100940.25;6153668;23;20421;-84
2023/03/04 01:31:26;;;;;;;20.90;13.00;;;;;;;39.27;35.84;100937.84;6153504;23;20381;-84
2023/03/04 01:33:52;;;;;;;20.03;12.40;;;;;;;39.30;36.50;100932.59;6155475;23;20361;-90
2023/03/04 01:36:27;;;;;;;18.10;13.20;;;;;;;39.45;36.09;100915.88;6154042;23;20770;-91
2023/03/04 01:38:54;;;;;;;19.60;12.70;;;;;;;39.56;36.48;100907.44;6154533;23;20734;-89
2023/03/04 01:41:27;;;;;;;21.17;12.73;;;;;;;39.93;35.43;100906.06;6155736;23;20427;-87
2023/03/04 01:44:03;;;;;;;20.57;11.53;;;;;;;39.67;36.26;100900.63;6152995;23;20384;-88
2023/03/04 01:46:32;;;;;;;24.07;13.77;;;;;;;39.82;35.75;100897.44;6155081;23;20389;-86
2023/03/04 01:49:01;;;;;;;21.63;12.10;;;;;;;39.68;36.54;100894.88;6153080;23;20382;-87
2023/03/04 01:51:27;;;;;;;21.27;14.43;;;;;;;40.05;35.50;100900.84;6129011;23;20391;-86
2023/03/04 01:53:56;;;;;;;22.47;13.37;;;;;;;40.07;35.45;100893.16;6153753;23;20460;-85
2023/03/04 01:56:46;;;;;;;24.03;14.80;;;;;;;40.07;35.85;100890.44;6129176;23;20417;-87
2023/03/04 01:59:34;;;;;;;27.73;13.40;;;;;;;40.36;35.39;100895.22;6154951;23;20741;-88
2023/03/04 02:02:05;;;;;;;20.87;13.20;;;;;;;40.75;34.50;100891.44;6152510;23;20401;-89
2023/03/04 02:04:45;;;;;;;24.63;15.20;;;;;;;40.98;34.00;100878.44;6154702;23;20761;-88
2023/03/04 02:07:17;;;;;;;18.67;13.07;;;;;;;41.10;34.18;100880.47;6152700;23;20892;-89
2023/03/04 02:09:43;;;;;;;18.90;13.63;;;;;;;41.00;34.42;100878.91;6144175;23;20385;-88
2023/03/04 02:12:14;;;;;;;27.03;16.20;;;;;;;40.96;34.83;100874.47;6155199;23;20451;-88
2023/03/04 02:14:45;;;;;;;18.67;13.43;;;;;;;40.98;34.72;100875.72;6155040;23;20386;-90
2023/03/04 02:17:12;;;;;;;19.40;13.50;;;;;;;41.15;34.48;100872.13;6153739;23;20397;-89
2023/03/04 02:19:58;;;;;;;19.23;13.70;;;;;;;41.18;34.32;100863.28;6155344;23;20401;-89
2023/03/04 02:22:29;;;;;;;21.23;13.80;;;;;;;41.24;34.08;100853.81;6154085;23;20381;-89
2023/03/04 02:25:42;;;;;;;21.27;12.57;;;;;;;41.28;34.22;100851.22;6151679;23;20392;-89
2023/03/04 02:28:13;;;;;;;24.47;13.57;;;;;;;41.48;33.76;100853.19;6153685;23;20472;-89
2023/03/04 02:30:41;;;;;;;21.40;13.47;;;;;;;41.52;33.87;100847.91;6148446;23;20388;-89
2023/03/04 02:33:20;;;;;;;25.83;14.43;;;;;;;41.49;33.82;100843.91;6129140;23;20492;-89
2023/03/04 02:35:58;;;;;;;21.87;14.70;;;;;;;41.55;34.50;100852.66;6154152;23;20392;-90
2023/03/04 02:38:47;;;;;;;36.57;16.83;;;;;;;41.55;34.42;100848.00;6155213;23;20377;-94
2023/03/04 02:41:21;;;;;;;20.30;14.73;;;;;;;41.54;34.66;100856.53;6152402;23;20867;-84
2023/03/04 02:43:51;;;;;;;21.37;15.40;;;;;;;41.48;35.25;100864.09;6152901;23;20381;-84
2023/03/04 02:46:19;;;;;;;23.60;16.67;;;;;;;41.35;35.38;100854.25;6153358;23;20381;-86
2023/03/04 02:49:00;;;;;;;26.57;15.07;;;;;;;41.45;35.62;100853.88;6128716;23;20421;-91
2023/03/04 02:51:27;;;;;;;23.73;14.30;;;;;;;41.44;35.71;100854.22;6155855;23;20448;-95
2023/03/04 02:53:53;;;;;;;27.27;14.60;;;;;;;41.44;36.10;100852.28;6154197;23;20412;-95
2023/03/04 02:56:19;;;;;;;26.40;15.10;;;;;;;41.24;36.46;100842.13;6154412;23;20208;-95
2023/03/04 02:58:45;;;;;;;31.70;14.60;;;;;;;41.48;36.25;100852.41;6154833;23;20233;-94
2023/03/04 03:01:11;;;;;;;27.67;16.43;;;;;;;41.42;36.78;100848.28;6153360;23;20425;-89
2023/03/04 03:03:37;;;;;;;45.73;17.17;;;;;;;41.26;36.99;100845.31;6153952;23;20157;-94
2023/03/04 03:06:03;;;;;;;24.53;15.70;;;;;;;41.32;37.27;100842.13;6147385;23;20433;-92
2023/03/04 03:08:29;;;;;;;22.90;14.40;;;;;;;41.31;36.96;100832.31;6155511;23;20451;-89
2023/03/04 03:10:55;;;;;;;22.13;12.63;;;;;;;41.39;37.21;100832.63;6155774;23;20377;-88
2023/03/04 03:13:21;;;;;;;30.00;16.97;;;;;;;41.40;37.13;100823.31;6155592;23;20392;-92
2023/03/04 03:15:47;;;;;;;27.93;15.27;;;;;;;41.43;37.59;100834.34;6155529;23;20373;-92
2023/03/04 03:18:13;;;;;;;27.13;15.00;;;;;;;41.37;37.36;100838.38;6155449;23;20467;-90
2023/03/04 03:20:38;;;;;;;32.50;17.53;;;;;;;41.15;37.76;100838.66;6155508;23;20465;-88
2023/03/04 03:23:04;;;;;;;26.60;15.30;;;;;;;41.24;38.17;100837.47;6155375;23;20385;-88
2023/03/04 03:25:30;;;;;;;34.93;16.93;;;;;;;40.96;38.41;100833.66;6155238;23;20390;-88
2023/03/04 03:27:56;;;;;;;24.27;16.13;;;;;;;41.03;38.11;100829.28;6155156;23;20401;-87
2023/03/04 03:30:22;;;;;;;24.20;15.73;;;;;;;41.18;38.55;100827.91;6155587;23;20845;-89
2023/03/04 03:32:48;;;;;;;28.77;16.70;;;;;;;41.25;38.25;100832.81;6155316;23;20734;-89
2023/03/04 03:35:14;;;;;;;27.60;16.00;;;;;;;41.20;38.64;100819.44;6155138;23;20409;-89
2023/03/04 03:37:42;;;;;;;23.50;15.20;;;;;;;40.96;38.84;100823.56;6155543;23;20830;-88
2023/03/04 03:40:09;;;;;;;26.20;16.27;;;;;;;41.15;38.84;100820.41;6154292;23;20905;-92
2023/03/04 03:42:35;;;;;;;22.70;14.60;;;;;;;41.23;38.54;100838.59;6154960;23;20846;-90
2023/03/04 03:45:01;;;;;;;23.90;15.10;;;;;;;41.05;38.78;100829.75;6155151;23;20885;-90
2023/03/04 03:47:27;;;;;;;26.23;15.00;;;;;;;41.01;39.15;100828.81;6154973;23;20735;-89
2023/03/04 03:49:53;;;;;;;19.07;14.30;;;;;;;40.84;39.63;100825.34;6155354;23;20389;-89
2023/03/04 03:52:19;;;;;;;25.03;15.27;;;;;;;41.14;39.17;100826.19;6155107;23;20419;-87
2023/03/04 03:54:45;;;;;;;22.23;14.30;;;;;;;40.66;40.22;100828.16;6155151;23;20395;-89
2023/03/04 03:57:11;;;;;;;27.43;13.33;;;;;;;40.80;39.97;100822.47;6155459;23;20491;-89
2023/03/04 03:59:37;;;;;;;22.70;14.40;;;;;;;40.99;39.35;100824.81;6155092;23;20862;-83
2023/03/04 04:02:03;;;;;;;19.67;14.97;;;;;;;41.01;39.57;100830.75;6154355;23;20392;-85
2023/03/04 04:04:29;;;;;;;31.00;15.13;;;;;;;40.67;40.00;100826.22;6154435;23;20392;-84
2023/03/04 04:06:55;;;;;;;20.53;13.30;;;;;;;41.01;39.36;100828.03;6154547;23;20448;-84
2023/03/04 04:09:21;;;;;;;29.80;13.50;;;;;;;40.89;39.86;100825.97;6154439;23;20154;-84
2023/03/04 04:11:47;;;;;;;20.97;13.73;;;;;;;40.64;40.24;100833.13;6154376;23;20945;-85
2023/03/04 04:14:13;;;;;;;33.87;15.27;;;;;;;41.03;39.28;100828.47;6154289;23;20405;-83
2023/03/04 04:16:39;;;;;;;25.03;14.23;;;;;;;41.15;39.22;100825.84;6154305;23;20393;-85
2023/03/04 04:19:05;;;;;;;30.53;14.77;;;;;;;41.21;38.99;100824.53;6154087;23;20385;-84
2023/03/04 04:21:31;;;;;;;23.43;13.53;;;;;;;40.81;39.41;100827.59;6154104;23;20435;-84
2023/03/04 04:23:57;;;;;;;24.13;13.90;;;;;;;41.23;39.22;100837.81;6154307;23;20392;-84
2023/03/04 04:26:23;;;;;;;23.50;15.77;;;;;;;41.25;38.97;100839.09;6154172;23;20389;-84
2023/03/04 04:28:49;;;;;;;24.27;14.77;;;;;;;40.93;39.66;100854.13;6153657;23;20939;-85
2023/03/04 04:31:15;;;;;;;24.97;15.67;;;;;;;40.82;39.66;100861.03;6154189;23;20159;-84
2023/03/04 04:33:44;;;;;;;24.30;15.80;;;;;;;40.87;39.56;100865.50;6154296;23;20157;-92
2023/03/04 04:36:17;;;;;;;18.80;14.87;;;;;;;40.84;39.17;100875.13;6129398;23;20479;-92
2023/03/04 04:38:50;;;;;;;28.43;17.63;;;;;;;40.60;39.34;100877.59;6131489;23;20416;-92
2023/03/04 04:41:26;;;;;;;25.97;15.30;;;;;;;40.66;38.92;100884.47;6153682;23;20437;-93
2023/03/04 04:44:03;;;;;;;30.13;19.07;;;;;;;40.74;38.60;100895.31;6155828;23;20842;-88
2023/03/04 04:46:45;;;;;;;23.60;18.23;;;;;;;40.70;38.83;100885.38;6154601;23;20389;-87
2023/03/04 04:49:11;;;;;;;26.33;17.13;;;;;;;40.83;38.38;100889.06;6153640;23;20408;-84
2023/03/04 04:51:37;;;;;;;25.70;17.83;;;;;;;40.70;38.43;100894.38;6154011;23;20378;-87
2023/03/04 04:54:05;;;;;;;24.80;16.27;;;;;;;40.84;38.05;100902.31;6154062;23;20865;-85
2023/03/04 04:56:31;;;;;;;23.87;17.90;;;;;;;40.94;37.99;100901.97;6153929;23;20421;-84
2023/03/04 04:59:01;;;;;;;23.90;17.60;;;;;;;40.62;38.52;100897.09;6154171;23;20500;-84
2023/03/04 05:01:27;;;;;;;33.20;20.47;;;;;;;40.76;38.48;100901.22;6154021;23;20425;-84
2023/03/04 05:03:54;;;;;;;31.73;19.70;;;;;;;40.74;38.08;100903.47;6154040;23;20396;-84
2023/03/04 05:06:22;;;;;;;22.47;17.00;;;;;;;40.75;37.93;100896.88;6153429;23;20791;-87
2023/03/04 05:08:49;;;;;;;23.53;17.23;;;;;;;40.78;37.85;100907.13;6153983;23;20389;-85
2023/03/04 05:11:18;;;;;;;33.70;22.10;;;;;;;40.86;37.44;100913.66;6153610;23;20440;-87
2023/03/04 05:13:44;;;;;;;22.17;18.70;;;;;;;40.85;37.90;100908.56;6155816;23;20390;-84
2023/03/04 05:16:10;;;;;;;22.53;19.47;;;;;;;40.61;38.08;100904.47;6153832;23;20401;-86
2023/03/04 05:18:36;;;;;;;31.40;21.63;;;;;;;40.77;37.61;100900.09;6153661;23;20710;-84
2023/03/04 05:21:03;;;;;;;34.47;25.13;;;;;;;40.76;37.38;100906.66;6153487;23;20479;-84
2023/03/04 05:23:52;;;;;;;45.10;29.33;;;;;;;40.63;38.15;100915.00;6153767;23;20424;-93
2023/03/04 05:26:21;;;;;;;45.10;31.20;;;;;;;40.49;37.97;100907.03;6156209;23;20856;-93
2023/03/04 05:28:49;;;;;;;45.03;28.97;;;;;;;40.64;38.03;100913.88;6152640;23;20460;-94
2023/03/04 05:31:16;;;;;;;46.20;27.93;;;;;;;40.72;38.04;100911.16;6154158;23;20390;-92
2023/03/04 05:33:45;;;;;;;34.67;21.90;;;;;;;40.62;38.01;100913.41;6155931;23;20443;-93
2023/03/04 05:36:11;;;;;;;37.00;25.53;;;;;;;40.60;38.04;100929.25;6151173;23;20460;-85
2023/03/04 05:38:42;;;;;;;38.03;22.37;;;;;;;40.58;37.93;100929.59;6153966;23;20854;-87
2023/03/04 05:41:11;;;;;;;36.20;24.60;;;;;;;40.52;38.04;100937.13;6154009;23;20520;-88
2023/03/04 05:43:41;;;;;;;40.17;22.00;;;;;;;40.35;37.86;100941.75;6155138;23;20382;-85
2023/03/04 05:46:11;;;;;;;41.20;25.10;;;;;;;40.08;38.83;100954.50;6154256;23;20424;-89
2023/03/04 05:48:37;;;;;;;35.97;22.97;;;;;;;40.22;38.19;100952.47;6153895;23;20877;-85
2023/03/04 05:51:04;;;;;;;40.03;26.17;;;;;;;40.31;38.29;100954.38;6155020;23;20437;-90
2023/03/04 05:53:30;;;;;;;29.20;22.17;;;;;;;40.49;38.03;100955.97;6153033;23;20438;-86
2023/03/04 05:55:58;;;;;;;27.50;22.37;;;;;;;39.90;38.50;100953.69;6153132;23;20377;-90
2023/03/04 05:58:24;;;;;;;30.27;20.67;;;;;;;40.02;38.15;100961.19;6153161;23;20389;-87
2023/03/04 06:00:50;;;;;;;36.80;21.17;;;;;;;40.55;37.60;100969.09;6153336;23;20777;-87
2023/03/04 06:03:19;;;;;;;40.80;21.50;;;;;;;40.76;37.11;100966.50;6154973;23;20401;-94
2023/03/04 06:05:47;;;;;;;33.70;19.80;;;;;;;40.78;37.17;100966.97;6130253;23;20447;-90
2023/03/04 06:08:14;;;;;;;31.17;22.43;;;;;;;41.00;36.53;100968.69;6154620;23;20487;-91
2023/03/04 06:10:43;;;;;;;36.40;23.47;;;;;;;41.12;36.27;100968.00;6153920;23;20743;-90
2023/03/04 06:13:10;;;;;;;37.57;24.23;;;;;;;41.21;36.21;100970.72;6154059;23;20389;-91
2023/03/04 06:15:40;;;;;;;36.70;24.77;;;;;;;41.16;36.29;100960.81;6154254;23;20905;-90
2023/03/04 06:18:28;;;;;;;39.43;25.20;;;;;;;41.24;35.67;100964.59;6150651;23;20765;-93
2023/03/04 06:21:02;;;;;;;34.43;25.77;;;;;;;41.23;36.15;100966.53;6151093;23;20811;-92
2023/03/04 06:23:29;;;;;;;30.13;23.63;;;;;;;41.41;35.81;100955.59;6153762;23;20520;-89
2023/03/04 06:25:57;;;;;;;41.47;28.60;;;;;;;41.10;36.08;100962.09;6151556;23;20381;-90
2023/03/04 06:28:26;;;;;;;35.57;24.67;;;;;;;40.90;36.27;100968.22;6150825;23;20397;-93
2023/03/04 06:31:15;;;;;;;31.60;23.30;;;;;;;40.80;36.89;100967.44;6152048;23;20826;-93
2023/03/04 06:33:45;;;;;;;37.17;25.23;;;;;;;40.87;36.98;100960.69;6149258;23;20394;-90
2023/03/04 06:36:10;;;;;;;34.63;24.00;;;;;;;40.69;36.54;100960.75;6151351;23;20389;-86
2023/03/04 06:38:38;;;;;;;35.60;24.40;;;;;;;41.14;36.40;100963.06;6153152;23;20407;-89
2023/03/04 06:41:13;;;;;;;35.90;25.80;;;;;;;41.25;35.97;100967.03;6154166;23;20433;-91
2023/03/04 06:43:39;;;;;;;40.47;25.40;;;;;;;40.97;36.44;100953.03;6152961;23;20388;-86
2023/03/04 06:46:13;;;;;;;50.03;31.83;;;;;;;40.93;36.66;100954.00;6153546;23;20878;-90
2023/03/04 06:48:40;;;;;;;36.53;29.40;;;;;;;40.77;36.95;100949.06;6154362;23;20867;-86
2023/03/04 06:51:07;;;;;;;58.37;38.10;;;;;;;40.76;36.80;100949.38;6153075;23;20385;-87
2023/03/04 06:53:35;;;;;;;51.53;38.47;;;;;;;40.47;37.59;100944.59;6153588;23;20424;-90
2023/03/04 06:56:02;;;;;;;48.40;32.00;;;;;;;40.33;37.85;100950.22;6153947;23;20381;-93
2023/03/04 06:58:33;;;;;;;58.60;37.53;;;;;;;40.50;37.84;100963.00;6153730;23;20416;-95
2023/03/04 07:01:11;;;;;;;56.00;37.80;;;;;;;40.84;36.69;100969.53;6152024;23;20432;-91
2023/03/04 07:03:49;;;;;;;50.60;41.43;;;;;;;40.31;38.07;100970.69;6152672;23;20388;-90
2023/03/04 07:06:18;;;;;;;55.93;37.53;;;;;;;40.28;37.94;100975.66;6151214;23;20519;-86
2023/03/04 07:08:46;;;;;;;56.70;38.37;;;;;;;40.69;37.44;100976.25;6154706;23;20874;-92
2023/03/04 07:11:14;;;;;;;62.47;43.50;;;;;;;40.66;37.16;100974.19;6128297;23;20389;-86
2023/03/04 07:13:40;;;;;;;68.23;44.80;;;;;;;40.80;37.42;100974.81;6152220;23;20397;-90
2023/03/04 07:16:08;;;;;;;59.67;42.00;;;;;;;40.49;37.91;100983.16;6153669;23;20420;-91
2023/03/04 07:18:38;;;;;;;58.47;39.37;;;;;;;40.00;38.95;100977.81;6153724;23;20793;-94
2023/03/04 07:21:06;;;;;;;62.07;36.47;;;;;;;40.68;37.60;100982.81;6153113;23;20937;-91
2023/03/04 07:23:33;;;;;;;63.80;37.80;;;;;;;40.32;37.89;100986.66;6151612;23;20792;-90
2023/03/04 07:25:59;;;;;;;55.23;37.53;;;;;;;40.43;37.77;100984.41;6127725;23;20870;-87
2023/03/04 07:28:25;;;;;;;70.30;38.93;;;;;;;40.51;37.54;100994.50;6152008;23;20388;-84
2023/03/04 07:30:54;;;;;;;67.33;36.20;;;;;;;40.72;37.47;100990.03;6151831;23;20798;-92
2023/03/04 07:33:20;;;;;;;49.57;34.27;;;;;;;40.59;37.73;100999.16;6151843;23;20389;-88
2023/03/04 07:35:57;;;;;;;59.80;42.33;;;;;;;40.25;38.00;101000.72;6151176;23;20460;-90
2023/03/04 07:38:24;;;;;;;77.10;48.80;;;;;;;40.36;37.48;101001.22;6151511;23;20157;-92
2023/03/04 07:40:57;;;;;;;80.67;51.47;;;;;;;40.17;37.69;101012.41;6151642;23;20526;-93
2023/03/04 07:43:23;;;;;;;84.50;48.23;;;;;;;40.40;37.87;101014.97;6152274;23;20448;-90
2023/03/04 07:45:49;;;;;;;72.77;47.30;;;;;;;40.77;36.92;101005.38;6152202;23;20760;-91
2023/03/04 07:48:15;;;;;;;68.63;45.13;;;;;;;40.58;37.40;101005.72;6151347;23;20405;-86
2023/03/04 07:50:41;;;;;;;65.37;45.90;;;;;;;40.90;36.73;101012.59;6153234;23;20385;-90
2023/03/04 07:53:17;;;;;;;67.20;43.37;;;;;;;40.86;36.97;101002.63;6156312;23;20383;-86
2023/03/04 07:56:06;;;;;;;62.57;40.67;;;;;;;40.72;37.87;101008.25;6156111;23;20385;-89
2023/03/04 07:58:33;;;;;;;58.10;39.70;;;;;;;40.73;37.77;101007.94;6155117;23;20734;-92
2023/03/04 08:01:00;;;;;;;61.27;41.30;;;;;;;41.06;37.23;101010.13;6155291;23;20448;-88
2023/03/04 08:03:28;;;;;;;54.60;38.10;;;;;;;41.17;37.09;101011.38;6154533;23;20381;-90
2023/03/04 08:05:54;;;;;;;51.00;34.60;;;;;;;41.32;37.38;101024.50;6155251;23;20444;-89
2023/03/04 08:08:20;;;;;;;51.10;33.43;;;;;;;41.36;37.36;101013.75;6155479;23;20476;-86
2023/03/04 08:10:46;;;;;;;49.83;33.43;;;;;;;41.01;37.66;101019.28;6153611;23;20401;-90
2023/03/04 08:13:13;;;;;;;48.40;32.30;;;;;;;41.17;37.57;101033.16;6153796;23;20385;-84
2023/03/04 08:15:43;;;;;;;48.70;32.00;;;;;;;41.36;37.63;101032.00;6153967;23;20833;-89
2023/03/04 08:18:09;;;;;;;54.47;34.63;;;;;;;41.20;37.75;101027.06;6131737;23;20393;-86
2023/03/04 08:20:35;;;;;;;54.67;33.47;;;;;;;41.49;37.45;101037.22;6154257;23;20429;-88
2023/03/04 08:23:01;;;;;;;44.63;31.53;;;;;;;41.86;37.21;101041.06;6153714;23;20925;-87
2023/03/04 08:25:27;;;;;;;53.17;39.73;;;;;;;41.89;37.20;101047.00;6151555;23;20385;-87
2023/03/04 08:27:53;;;;;;;56.33;38.60;;;;;;;41.86;37.12;101051.97;6155512;23;20385;-94
2023/03/04 08:30:19;;;;;;;55.93;34.07;;;;;;;41.99;36.65;101062.97;6155960;23;20384;-93
2023/03/04 08:32:45;;;;;;;53.40;34.00;;;;;;;42.04;37.11;101073.66;6155551;23;20413;-94
2023/03/04 08:35:11;;;;;;;41.67;30.27;;;;;;;42.10;37.02;101080.53;6153914;23;20381;-93
2023/03/04 08:37:37;;;;;;;52.97;30.13;;;;;;;42.14;36.90;101076.03;6154639;23;20409;-94
2023/03/04 08:40:03;;;;;;;47.53;34.33;;;;;;;42.26;36.38;101070.69;6153001;23;20948;-85
2023/03/04 08:42:33;;;;;;;39.67;25.80;;;;;;;42.25;36.89;101082.72;6154012;23;20389;-87
2023/03/04 08:44:59;;;;;;;45.40;24.40;;;;;;;42.12;36.85;101078.28;6151105;23;20457;-87
2023/03/04 08:47:25;;;;;;;42.43;25.30;;;;;;;42.29;37.36;101080.09;6150038;23;20377;-84
2023/03/04 08:49:51;;;;;;;41.90;25.10;;;;;;;42.37;36.96;101079.28;6149563;23;20389;-83
2023/03/04 08:52:17;;;;;;;44.87;24.17;;;;;;;42.54;36.68;101091.94;6151340;23;20910;-82
2023/03/04 08:54:43;;;;;;;35.60;23.40;;;;;;;42.59;36.60;101094.50;6152430;23;20854;-85
2023/03/04 08:57:09;;;;;;;34.10;25.73;;;;;;;42.53;36.61;101093.88;6152535;23;20889;-86
2023/03/04 08:59:35;;;;;;;35.13;22.07;;;;;;;41.89;37.33;101091.41;6152252;23;20381;-86
2023/03/04 09:02:01;;;;;;;51.73;24.23;;;;;;;41.85;37.94;101095.91;6153879;23;20980;-84
2023/03/04 09:04:27;;;;;;;37.53;23.13;;;;;;;41.90;37.92;101089.47;6152185;23;20731;-84
2023/03/04 09:06:52;;;;;;;44.63;23.87;;;;;;;42.24;37.48;101092.03;6151433;23;20463;-84
2023/03/04 09:09:18;;;;;;;32.80;20.60;;;;;;;42.39;36.62;101094.16;6152678;23;20393;-84
2023/03/04 09:11:44;;;;;;;28.43;22.17;;;;;;;42.38;36.86;101092.56;6151915;23;20412;-92
2023/03/04 09:14:10;;;;;;;31.67;21.23;;;;;;;42.54;36.35;101090.06;6151669;23;20385;-90
2023/03/04 09:16:36;;;;;;;27.43;18.50;;;;;;;42.42;36.73;101092.72;6151922;23;20425;-89
2023/03/04 09:19:02;;;;;;;26.73;17.23;;;;;;;42.29;36.74;101091.81;6152445;23;20389;-87
2023/03/04 09:21:28;;;;;;;32.33;17.83;;;;;;;42.22;36.92;101083.38;6152692;23;20821;-86
2023/03/04 09:23:54;;;;;;;27.33;17.40;;;;;;;42.34;36.67;101080.72;6153638;23;20476;-90
2023/03/04 09:26:23;;;;;;;21.60;16.57;;;;;;;42.40;36.73;101084.03;6153665;23;20420;-91
2023/03/04 09:28:54;;;;;;;24.80;19.20;;;;;;;42.48;36.88;101082.38;6153543;23;20385;-90
2023/03/04 09:31:21;;;;;;;25.97;18.80;;;;;;;42.45;36.78;101083.84;6153344;23;20391;-90
2023/03/04 09:33:47;;;;;;;36.53;18.40;;;;;;;42.32;36.81;101082.97;6153389;23;20381;-89
2023/03/04 09:36:14;;;;;;;29.63;17.67;;;;;;;42.09;37.23;101078.94;6155226;23;20433;-91
2023/03/04 09:38:42;;;;;;;34.10;22.73;;;;;;;42.45;36.72;101072.94;6153708;23;20515;-93
2023/03/04 09:41:16;;;;;;;28.27;19.00;;;;;;;42.11;37.12;101074.78;6153107;23;20432;-90
2023/03/04 09:43:43;;;;;;;29.33;17.33;;;;;;;42.49;36.59;101062.19;6153492;23;20393;-87
2023/03/04 09:46:14;;;;;;;31.07;17.70;;;;;;;42.64;36.25;101073.28;6153299;23;20429;-88
2023/03/04 09:48:48;;;;;;;28.17;16.97;;;;;;;42.52;36.17;101069.69;6153026;23;20391;-89
2023/03/04 09:51:55;;;;;;;23.80;17.23;;;;;;;42.65;36.14;101066.69;6153242;23;20862;-88
2023/03/04 09:54:41;;;;;;;23.60;15.40;;;;;;;42.56;36.31;101070.63;6153382;23;20864;-92
2023/03/04 09:57:42;;;;;;;27.93;17.47;;;;;;;42.74;36.16;101063.91;6153388;23;20415;-93
2023/03/04 10:00:24;;;;;;;23.37;15.63;;;;;;;42.82;35.95;101076.66;6150301;23;20435;-93
2023/03/04 10:02:53;;;;;;;22.80;15.10;;;;;;;42.74;36.23;101076.75;6153098;23;20396;-87
2023/03/04 10:05:21;;;;;;;19.23;14.50;;;;;;;42.55;36.19;101072.56;6152724;23;20420;-90
2023/03/04 10:07:57;;;;;;;21.47;14.30;;;;;;;42.64;36.42;101078.75;6153061;23;20421;-89
2023/03/04 10:10:32;;;;;;;24.17;13.47;;;;;;;42.70;36.35;101081.28;6154508;23;20365;-88
2023/03/04 10:13:00;;;;;;;29.63;16.37;;;;;;;42.77;35.80;101081.53;6152984;23;20785;-88
2023/03/04 10:15:49;;;;;;;21.60;13.30;;;;;;;42.86;35.98;101080.31;6154771;23;20394;-89
2023/03/04 10:18:26;;;;;;;20.37;16.10;;;;;;;42.92;35.90;101089.09;6153263;23;20480;-89
2023/03/04 10:21:14;;;;;;;19.23;13.57;;;;;;;42.86;36.09;101087.72;6152511;23;20523;-84
2023/03/04 10:23:40;;;;;;;25.50;12.70;;;;;;;42.72;36.19;101081.72;6152619;23;20389;-88
2023/03/04 10:26:14;;;;;;;28.03;16.30;;;;;;;42.84;35.93;101079.03;6153019;23;20403;-88
2023/03/04 10:28:40;;;;;;;22.87;15.00;;;;;;;42.60;36.40;101087.91;6152343;23;20909;-89
2023/03/04 10:31:21;;;;;;;23.43;16.60;;;;;;;42.97;35.98;101088.91;6151856;23;20400;-85
2023/03/04 10:33:48;;;;;;;25.87;15.40;;;;;;;42.78;36.10;101081.19;6151960;23;20392;-86
2023/03/04 10:36:29;;;;;;;18.80;13.13;;;;;;;43.11;35.81;101089.41;6154186;23;20455;-90
2023/03/04 10:38:59;;;;;;;25.00;14.07;;;;;;;42.87;36.07;101087.38;6153170;23;20420;-89
2023/03/04 10:41:29;;;;;;;21.53;14.47;;;;;;;42.73;36.38;101081.41;6152753;23;20433;-88
2023/03/04 10:44:07;;;;;;;34.03;14.30;;;;;;;42.74;36.74;101071.28;6152817;23;20484;-78
2023/03/04 10:46:38;;;;;;;18.67;14.50;;;;;;;42.66;36.58;101070.22;6154543;23;20357;-82
2023/03/04 10:49:05;;;;;;;28.83;15.60;;;;;;;43.02;36.25;101077.78;6129289;23;20416;-87
2023/03/04 10:51:31;;;;;;;19.90;13.43;;;;;;;42.80;36.45;101080.88;6128835;23;20403;-90
2023/03/04 10:54:06;;;;;;;20.10;12.60;;;;;;;43.02;35.70;101085.16;6152992;23;20913;-89
2023/03/04 10:56:52;;;;;;;19.17;13.03;;;;;;;43.07;36.35;101095.88;6153124;23;20440;-92
2023/03/04 10:59:33;;;;;;;24.43;13.27;;;;;;;43.02;36.15;101093.34;6152447;23;20447;-87
2023/03/04 11:02:01;;;;;;;20.93;13.27;;;;;;;43.03;36.45;101079.41;6151529;23;20444;-82
2023/03/04 11:04:32;;;;;;;24.80;13.10;;;;;;;43.09;36.06;101082.69;6150866;23;20385;-84
2023/03/04 11:06:58;;;;;;;20.93;13.90;;;;;;;42.86;36.18;101074.06;6151443;23;20471;-79
2023/03/04 11:09:30;;;;;;;23.40;13.53;;;;;;;42.50;36.91;101085.59;6151208;23;20385;-79
2023/03/04 11:12:00;;;;;;;29.10;15.43;;;;;;;42.91;36.35;101082.06;6151445;23;20887;-79
2023/03/04 11:14:30;;;;;;;20.80;12.57;;;;;;;43.14;35.89;101060.63;6151204;23;20469;-85
2023/03/04 11:16:58;;;;;;;29.27;14.57;;;;;;;43.10;35.72;101055.06;6151840;23;20385;-85
2023/03/04 11:19:37;;;;;;;19.57;12.70;;;;;;;43.24;35.83;101052.00;6151952;23;20379;-83